createdAt,value
2019-02-23T00:00:15.198Z,74.23
2019-02-23T00:00:50.297Z,72.43
2019-02-23T00:01:21.628Z,82.40
2019-02-23T00:01:53.075Z,92.00
2019-02-23T00:02:24.368Z,88.80
2019-02-23T00:02:55.703Z,83.23
2019-02-23T00:03:27.034Z,71.47
2019-02-23T00:03:58.353Z,72.20
2019-02-23T00:04:30.656Z,76.40
2019-02-23T00:05:01.918Z,79.03
2019-02-23T00:05:33.417Z,68.60
2019-02-23T00:06:04.703Z,73.70
2019-02-23T00:06:35.972Z,88.47
2019-02-23T00:07:07.282Z,77.43
2019-02-23T00:07:38.615Z,77.27
2019-02-23T00:08:10.045Z,76.33
2019-02-23T00:08:41.352Z,71.73
2019-02-23T00:09:12.755Z,74.47
2019-02-23T00:09:44.297Z,81.07
2019-02-23T00:10:17.680Z,75.43
2019-02-23T00:10:49.199Z,77.63
2019-02-23T00:11:24.309Z,69.77
2019-02-23T00:11:55.723Z,78.67
2019-02-23T00:12:27.115Z,84.47
2019-02-23T00:12:58.523Z,81.63
2019-02-23T00:13:29.956Z,94.47
2019-02-23T00:14:01.409Z,94.43
2019-02-23T00:14:33.990Z,100.13
2019-02-23T00:15:05.993Z,100.30
2019-02-23T00:15:37.355Z,110.27
2019-02-23T00:16:08.940Z,113.83
2019-02-23T00:16:40.374Z,104.83
2019-02-23T00:17:11.816Z,105.97
2019-02-23T00:17:43.634Z,101.77
2019-02-23T00:18:15.212Z,104.10
2019-02-23T00:18:46.812Z,94.80
2019-02-23T00:19:24.911Z,98.17
2019-02-23T00:19:51.749Z,99.33
2019-02-23T00:20:23.163Z,102.93
2019-02-23T00:20:54.735Z,101.03
2019-02-23T00:21:26.168Z,95.20
2019-02-23T00:21:57.639Z,104.43
2019-02-23T00:22:29.061Z,121.17
2019-02-23T00:23:00.531Z,124.77
2019-02-23T00:23:31.820Z,124.93
2019-02-23T00:24:03.429Z,122.90
2019-02-23T00:24:34.891Z,125.93
2019-02-23T00:25:06.598Z,124.03
2019-02-23T00:25:37.993Z,121.90
2019-02-23T00:26:09.628Z,115.07
2019-02-23T00:26:40.892Z,110.97
2019-02-23T00:27:12.320Z,119.07
2019-02-23T00:27:43.839Z,115.53
2019-02-23T00:28:15.439Z,107.10
2019-02-23T00:28:46.956Z,111.80
2019-02-23T00:29:18.598Z,99.47
2019-02-23T00:29:50.064Z,87.10
2019-02-23T00:30:21.399Z,85.67
2019-02-23T00:30:52.828Z,89.97
2019-02-23T00:31:24.347Z,84.17
2019-02-23T00:31:55.669Z,83.33
2019-02-23T00:32:27.144Z,84.43
2019-02-23T00:32:58.577Z,79.50
2019-02-23T00:33:30.005Z,79.87
2019-02-23T00:34:01.503Z,89.60
2019-02-23T00:34:32.909Z,101.07
2019-02-23T00:35:04.423Z,107.40
2019-02-23T00:35:35.872Z,101.70
2019-02-23T00:36:07.377Z,116.43
2019-02-23T00:36:39.081Z,116.97
2019-02-23T00:37:10.537Z,127.70
2019-02-23T00:37:42.162Z,127.63
2019-02-23T00:38:13.845Z,123.13
2019-02-23T00:38:45.343Z,132.83
2019-02-23T00:39:16.681Z,130.30
2019-02-23T00:39:48.139Z,134.90
2019-02-23T00:40:19.498Z,121.10
2019-02-23T00:40:50.941Z,124.60
2019-02-23T00:41:22.285Z,126.30
2019-02-23T00:41:53.661Z,130.03
2019-02-23T00:42:25.022Z,123.30
2019-02-23T00:42:56.371Z,133.27
2019-02-23T00:43:27.701Z,129.50
2019-02-23T00:43:59.022Z,136.90
2019-02-23T00:44:30.419Z,130.73
2019-02-23T00:45:01.854Z,133.37
2019-02-23T00:45:34.326Z,130.70
2019-02-23T00:46:05.703Z,131.67
2019-02-23T00:46:37.132Z,134.23
2019-02-23T00:47:08.678Z,133.77
2019-02-23T00:47:40.298Z,141.33
2019-02-23T00:48:11.700Z,138.20
2019-02-23T00:48:43.022Z,137.27
2019-02-23T00:49:14.567Z,142.90
2019-02-23T00:49:46.036Z,150.87
2019-02-23T00:50:17.625Z,144.07
2019-02-23T00:50:49.096Z,147.17
2019-02-23T00:51:20.698Z,143.50
2019-02-23T00:51:52.103Z,151.27
2019-02-23T00:52:23.532Z,145.83
2019-02-23T00:52:55.028Z,147.43
2019-02-23T00:53:26.544Z,148.37
2019-02-23T00:53:58.009Z,152.53
2019-02-23T00:54:29.495Z,142.30
2019-02-23T00:55:00.851Z,138.77
2019-02-23T00:55:32.433Z,128.67
2019-02-23T00:56:03.870Z,119.07
2019-02-23T00:56:35.200Z,110.93
2019-02-23T00:57:07.694Z,95.43
2019-02-23T00:57:39.097Z,91.47
2019-02-23T00:58:10.582Z,98.53
2019-02-23T00:58:42.052Z,101.73
2019-02-23T00:59:13.566Z,105.43
2019-02-23T00:59:45.109Z,114.90
2019-02-23T01:00:17.013Z,118.67
2019-02-23T01:00:48.636Z,128.70
2019-02-23T01:01:20.205Z,132.43
2019-02-23T01:01:51.566Z,121.13
2019-02-23T01:02:24.100Z,109.23
2019-02-23T01:02:55.653Z,105.60
2019-02-23T01:03:27.167Z,100.60
2019-02-23T01:03:58.743Z,97.17
2019-02-23T01:04:30.170Z,93.63
2019-02-23T01:05:01.471Z,95.87
2019-02-23T01:05:32.981Z,101.00
2019-02-23T01:06:04.413Z,104.63
2019-02-23T01:06:35.883Z,116.47
2019-02-23T01:07:07.418Z,105.77
2019-02-23T01:07:38.897Z,110.57
2019-02-23T01:08:10.308Z,109.80
2019-02-23T01:08:42.732Z,116.23
2019-02-23T01:09:14.172Z,97.37
2019-02-23T01:09:45.554Z,92.93
2019-02-23T01:10:19.365Z,97.00
2019-02-23T01:10:57.834Z,105.87
2019-02-23T01:11:23.242Z,125.67
2019-02-23T01:11:54.587Z,150.07
2019-02-23T01:12:25.894Z,155.40
2019-02-23T01:12:57.218Z,142.40
2019-02-23T01:13:28.749Z,140.87
2019-02-23T01:14:00.028Z,124.80
2019-02-23T01:14:31.356Z,118.23
2019-02-23T01:15:06.118Z,109.47
2019-02-23T01:15:37.413Z,114.23
2019-02-23T01:16:08.757Z,114.13
2019-02-23T01:16:40.164Z,114.40
2019-02-23T01:17:11.394Z,104.07
2019-02-23T01:17:42.771Z,104.10
2019-02-23T01:18:14.440Z,97.20
2019-02-23T01:18:46.757Z,96.23
2019-02-23T01:19:18.058Z,102.87
2019-02-23T01:19:49.458Z,102.93
2019-02-23T01:20:20.741Z,108.90
2019-02-23T01:20:52.153Z,106.87
2019-02-23T01:21:23.536Z,119.97
2019-02-23T01:21:54.815Z,120.83
2019-02-23T01:22:26.286Z,122.80
2019-02-23T01:22:57.677Z,117.13
2019-02-23T01:23:29.072Z,121.33
2019-02-23T01:24:00.468Z,123.03
2019-02-23T01:24:31.853Z,111.00
2019-02-23T01:25:04.364Z,102.83
2019-02-23T01:25:35.798Z,98.67
2019-02-23T01:26:07.120Z,70.77
2019-02-23T01:26:38.732Z,54.77
2019-02-23T01:27:10.150Z,48.70
2019-02-23T01:27:41.506Z,40.00
2019-02-23T01:28:12.895Z,48.33
2019-02-23T01:28:47.095Z,46.13
2019-02-23T01:29:18.580Z,36.43
2019-02-23T01:29:50.035Z,39.23
2019-02-23T01:30:21.424Z,39.53
2019-02-23T01:30:52.670Z,40.40
2019-02-23T01:31:24.235Z,37.40
2019-02-23T01:31:55.706Z,40.33
2019-02-23T01:32:28.078Z,43.80
2019-02-23T01:32:59.375Z,45.47
2019-02-23T01:33:30.685Z,41.67
2019-02-23T01:34:02.123Z,40.03
2019-02-23T01:34:33.521Z,43.47
2019-02-23T01:35:04.879Z,42.73
2019-02-23T01:35:36.379Z,44.63
2019-02-23T01:36:07.701Z,43.87
2019-02-23T01:36:39.181Z,46.90
2019-02-23T01:37:10.575Z,45.70
2019-02-23T01:37:41.979Z,46.33
2019-02-23T01:38:13.345Z,52.20
2019-02-23T01:38:44.812Z,52.03
2019-02-23T01:39:16.154Z,54.47
2019-02-23T01:39:47.671Z,47.53
2019-02-23T01:40:18.984Z,44.13
2019-02-23T01:40:50.329Z,50.60
2019-02-23T01:41:21.972Z,46.20
2019-02-23T01:41:53.384Z,43.50
2019-02-23T01:42:24.647Z,43.23
2019-02-23T01:42:56.019Z,43.30
2019-02-23T01:43:27.290Z,41.73
2019-02-23T01:44:00.533Z,38.33
2019-02-23T01:44:31.831Z,40.67
2019-02-23T01:45:05.467Z,33.67
2019-02-23T01:45:42.263Z,34.20
2019-02-23T01:46:10.059Z,36.33
2019-02-23T01:46:42.441Z,34.97
2019-02-23T01:47:13.841Z,37.43
2019-02-23T01:47:45.311Z,34.03
2019-02-23T01:48:16.763Z,33.93
2019-02-23T01:48:48.168Z,33.77
2019-02-23T01:49:19.529Z,40.00
2019-02-23T01:49:58.491Z,37.47
2019-02-23T01:50:24.386Z,37.83
2019-02-23T01:50:55.754Z,34.57
2019-02-23T01:51:27.088Z,34.00
2019-02-23T01:51:58.604Z,36.80
2019-02-23T01:52:30.016Z,36.00
2019-02-23T01:53:01.301Z,35.87
2019-02-23T01:53:32.728Z,37.63
2019-02-23T01:54:04.032Z,39.77
2019-02-23T01:54:35.304Z,43.33
2019-02-23T01:55:06.903Z,43.07
2019-02-23T01:55:38.199Z,42.47
2019-02-23T01:56:09.709Z,44.70
2019-02-23T01:56:41.111Z,44.87
2019-02-23T01:57:12.428Z,40.03
2019-02-23T01:57:43.955Z,37.87
2019-02-23T01:58:15.425Z,39.80
2019-02-23T01:58:46.775Z,45.07
2019-02-23T01:59:18.166Z,39.63
2019-02-23T01:59:49.507Z,39.53
2019-02-23T02:00:21.633Z,42.53
2019-02-23T02:00:52.981Z,41.07
2019-02-23T02:01:24.389Z,37.17
2019-02-23T02:01:57.343Z,38.77
2019-02-23T02:02:28.981Z,41.87
2019-02-23T02:03:00.379Z,36.13
2019-02-23T02:03:31.708Z,44.83
2019-02-23T02:04:03.082Z,40.53
2019-02-23T02:04:35.544Z,39.37
2019-02-23T02:05:07.384Z,36.57
2019-02-23T02:05:38.761Z,34.87
2019-02-23T02:06:10.243Z,35.13
2019-02-23T02:06:41.609Z,35.13
2019-02-23T02:07:13.040Z,33.17
2019-02-23T02:07:44.352Z,31.67
2019-02-23T02:08:15.715Z,34.10
2019-02-23T02:08:47.110Z,29.67
2019-02-23T02:09:18.416Z,32.57
2019-02-23T02:09:49.694Z,34.87
2019-02-23T02:10:21.048Z,33.83
2019-02-23T02:10:52.364Z,34.40
2019-02-23T02:11:23.757Z,36.13
2019-02-23T02:11:54.960Z,36.20
2019-02-23T02:12:26.352Z,37.57
2019-02-23T02:12:57.670Z,31.77
2019-02-23T02:13:28.970Z,32.63
2019-02-23T02:14:00.357Z,27.43
2019-02-23T02:14:31.598Z,28.37
2019-02-23T02:15:07.019Z,30.13
2019-02-23T02:15:38.687Z,31.73
2019-02-23T02:16:09.889Z,35.50
2019-02-23T02:16:41.109Z,38.90
2019-02-23T02:17:12.651Z,40.33
2019-02-23T02:17:43.901Z,37.90
2019-02-23T02:18:15.165Z,40.20
2019-02-23T02:18:46.683Z,38.80
2019-02-23T02:19:18.880Z,37.83
2019-02-23T02:19:50.093Z,42.10
2019-02-23T02:20:21.400Z,39.63
2019-02-23T02:20:52.718Z,36.17
2019-02-23T02:21:23.962Z,43.03
2019-02-23T02:21:55.210Z,40.47
2019-02-23T02:22:26.468Z,40.63
2019-02-23T02:22:57.687Z,39.93
2019-02-23T02:23:28.945Z,35.43
2019-02-23T02:24:00.360Z,42.10
2019-02-23T02:24:31.887Z,43.73
2019-02-23T02:25:05.093Z,36.40
2019-02-23T02:25:36.375Z,36.67
2019-02-23T02:26:07.693Z,39.77
2019-02-23T02:26:38.901Z,38.23
2019-02-23T02:27:10.195Z,40.03
2019-02-23T02:27:41.415Z,40.47
2019-02-23T02:28:12.658Z,38.00
2019-02-23T02:28:44.105Z,42.30
2019-02-23T02:29:15.419Z,38.60
2019-02-23T02:29:46.653Z,37.10
2019-02-23T02:30:17.939Z,37.90
2019-02-23T02:30:49.135Z,40.00
2019-02-23T02:31:20.436Z,36.70
2019-02-23T02:31:51.626Z,37.50
2019-02-23T02:32:22.897Z,39.67
2019-02-23T02:32:54.091Z,36.43
2019-02-23T02:33:25.502Z,36.40
2019-02-23T02:34:04.565Z,35.63
2019-02-23T02:34:35.892Z,37.37
2019-02-23T02:35:09.069Z,39.87
2019-02-23T02:35:40.542Z,39.30
2019-02-23T02:36:12.064Z,46.23
2019-02-23T02:36:43.780Z,42.80
2019-02-23T02:37:15.022Z,37.60
2019-02-23T02:37:46.280Z,35.27
2019-02-23T02:38:17.601Z,35.07
2019-02-23T02:38:48.849Z,34.37
2019-02-23T02:39:20.157Z,37.97
2019-02-23T02:39:51.490Z,32.63
2019-02-23T02:40:22.859Z,33.20
2019-02-23T02:40:54.216Z,31.93
2019-02-23T02:41:25.482Z,31.47
2019-02-23T02:41:56.762Z,43.73
2019-02-23T02:42:28.028Z,55.83
2019-02-23T02:42:59.403Z,57.57
2019-02-23T02:43:30.699Z,59.47
2019-02-23T02:44:02.098Z,60.67
2019-02-23T02:44:33.397Z,64.40
2019-02-23T02:45:08.448Z,68.47
2019-02-23T02:45:40.001Z,73.17
2019-02-23T02:46:11.266Z,70.60
2019-02-23T02:46:42.581Z,70.00
2019-02-23T02:47:14.113Z,70.80
2019-02-23T02:47:45.438Z,65.93
2019-02-23T02:48:16.801Z,71.23
2019-02-23T02:48:48.126Z,60.10
2019-02-23T02:49:19.530Z,57.23
2019-02-23T02:49:50.994Z,59.87
2019-02-23T02:50:24.468Z,59.47
2019-02-23T02:50:55.418Z,56.30
2019-02-23T02:51:26.784Z,54.97
2019-02-23T02:51:58.132Z,62.57
2019-02-23T02:52:29.493Z,54.00
2019-02-23T02:53:00.863Z,61.47
2019-02-23T02:53:32.282Z,53.77
2019-02-23T02:54:03.565Z,53.70
2019-02-23T02:54:34.846Z,51.60
2019-02-23T02:55:07.661Z,56.03
2019-02-23T02:55:38.959Z,54.37
2019-02-23T02:56:10.214Z,52.70
2019-02-23T02:56:41.571Z,51.83
2019-02-23T02:57:12.958Z,49.17
2019-02-23T02:57:44.404Z,51.43
2019-02-23T02:58:15.734Z,54.17
2019-02-23T02:58:47.075Z,52.97
2019-02-23T02:59:18.298Z,48.37
2019-02-23T02:59:49.574Z,45.87
2019-02-23T03:00:20.887Z,44.60
2019-02-23T03:00:52.069Z,41.47
2019-02-23T03:01:23.353Z,42.93
2019-02-23T03:01:54.570Z,45.07
2019-02-23T03:02:26.050Z,45.50
2019-02-23T03:02:57.349Z,45.40
2019-02-23T03:03:28.890Z,47.20
2019-02-23T03:04:00.196Z,38.70
2019-02-23T03:04:31.640Z,42.30
2019-02-23T03:05:04.179Z,42.63
2019-02-23T03:05:36.527Z,44.20
2019-02-23T03:06:07.747Z,50.17
2019-02-23T03:06:39.157Z,50.67
2019-02-23T03:07:11.441Z,48.67
2019-02-23T03:07:42.822Z,54.97
2019-02-23T03:08:14.146Z,61.90
2019-02-23T03:08:45.457Z,64.83
2019-02-23T03:09:17.153Z,72.10
2019-02-23T03:09:48.439Z,66.07
2019-02-23T03:10:19.781Z,64.47
2019-02-23T03:10:51.143Z,60.70
2019-02-23T03:11:22.408Z,59.00
2019-02-23T03:11:53.825Z,65.83
2019-02-23T03:12:25.075Z,61.77
2019-02-23T03:12:56.422Z,63.23
2019-02-23T03:13:27.726Z,58.13
2019-02-23T03:13:59.108Z,63.83
2019-02-23T03:14:30.482Z,59.00
2019-02-23T03:15:01.815Z,54.90
2019-02-23T03:15:34.171Z,66.80
2019-02-23T03:16:05.520Z,58.87
2019-02-23T03:16:36.951Z,65.93
2019-02-23T03:17:08.336Z,65.40
2019-02-23T03:17:39.628Z,61.00
2019-02-23T03:18:10.983Z,59.07
2019-02-23T03:18:42.242Z,51.27
2019-02-23T03:19:13.780Z,45.73
2019-02-23T03:19:45.119Z,48.30
2019-02-23T03:20:16.700Z,49.33
2019-02-23T03:20:47.948Z,43.13
2019-02-23T03:21:19.237Z,47.53
2019-02-23T03:21:50.495Z,53.00
2019-02-23T03:22:21.813Z,45.63
2019-02-23T03:22:53.187Z,47.47
2019-02-23T03:23:24.461Z,49.73
2019-02-23T03:23:55.657Z,49.67
2019-02-23T03:24:26.999Z,42.90
2019-02-23T03:24:58.222Z,46.27
2019-02-23T03:25:29.605Z,46.47
2019-02-23T03:26:00.865Z,47.73
2019-02-23T03:26:32.090Z,53.07
2019-02-23T03:27:03.334Z,71.23
2019-02-23T03:27:34.623Z,64.10
2019-02-23T03:28:05.896Z,66.90
2019-02-23T03:28:37.212Z,67.03
2019-02-23T03:29:08.418Z,66.80
2019-02-23T03:29:39.684Z,65.80
2019-02-23T03:30:10.957Z,67.23
2019-02-23T03:30:42.437Z,70.90
2019-02-23T03:31:13.705Z,69.53
2019-02-23T03:31:45.065Z,71.53
2019-02-23T03:32:16.348Z,71.33
2019-02-23T03:32:47.696Z,77.10
2019-02-23T03:33:19.006Z,73.27
2019-02-23T03:33:50.409Z,70.90
2019-02-23T03:34:21.720Z,77.03
2019-02-23T03:34:53.015Z,89.53
2019-02-23T03:35:24.231Z,83.70
2019-02-23T03:35:55.559Z,78.33
2019-02-23T03:36:26.965Z,74.23
2019-02-23T03:36:58.390Z,70.57
2019-02-23T03:37:29.665Z,73.23
2019-02-23T03:38:01.041Z,66.77
2019-02-23T03:38:32.351Z,62.37
2019-02-23T03:39:04.109Z,60.83
2019-02-23T03:39:36.896Z,62.10
2019-02-23T03:40:08.376Z,59.60
2019-02-23T03:40:39.676Z,62.20
2019-02-23T03:41:11.012Z,58.73
2019-02-23T03:41:42.432Z,55.07
2019-02-23T03:42:14.115Z,54.97
2019-02-23T03:42:45.481Z,59.47
2019-02-23T03:43:16.801Z,48.77
2019-02-23T03:43:48.148Z,51.43
2019-02-23T03:44:19.384Z,51.03
2019-02-23T03:44:50.688Z,46.30
2019-02-23T03:45:21.926Z,46.33
2019-02-23T03:45:53.274Z,53.87
2019-02-23T03:46:24.523Z,49.20
2019-02-23T03:46:55.905Z,51.67
2019-02-23T03:47:27.105Z,50.50
2019-02-23T03:47:58.435Z,44.57
2019-02-23T03:48:29.695Z,52.93
2019-02-23T03:49:01.059Z,63.03
2019-02-23T03:49:32.350Z,62.80
2019-02-23T03:50:05.838Z,57.90
2019-02-23T03:50:48.470Z,61.83
2019-02-23T03:51:10.371Z,72.20
2019-02-23T03:51:41.598Z,67.67
2019-02-23T03:52:12.889Z,73.47
2019-02-23T03:52:44.317Z,70.43
2019-02-23T03:53:15.674Z,73.50
2019-02-23T03:53:47.103Z,78.40
2019-02-23T03:54:18.455Z,74.13
2019-02-23T03:54:49.764Z,69.33
2019-02-23T03:55:21.142Z,74.90
2019-02-23T03:55:52.518Z,79.03
2019-02-23T03:56:23.833Z,74.27
2019-02-23T03:56:55.059Z,71.73
2019-02-23T03:57:26.408Z,75.53
2019-02-23T03:57:57.821Z,80.23
2019-02-23T03:58:29.212Z,70.90
2019-02-23T03:59:00.551Z,67.17
2019-02-23T03:59:31.820Z,62.37
2019-02-23T04:00:06.225Z,62.23
2019-02-23T04:00:37.730Z,58.50
2019-02-23T04:01:09.085Z,60.60
2019-02-23T04:01:40.405Z,57.40
2019-02-23T04:02:11.833Z,57.60
2019-02-23T04:02:44.413Z,50.27
2019-02-23T04:03:15.822Z,61.90
2019-02-23T04:03:47.360Z,52.83
2019-02-23T04:04:19.745Z,55.03
2019-02-23T04:04:51.086Z,60.60
2019-02-23T04:05:22.325Z,61.70
2019-02-23T04:05:53.694Z,62.67
2019-02-23T04:06:25.127Z,62.47
2019-02-23T04:06:56.650Z,66.80
2019-02-23T04:07:27.871Z,67.03
2019-02-23T04:07:59.159Z,79.23
2019-02-23T04:08:30.552Z,69.70
2019-02-23T04:09:02.875Z,76.03
2019-02-23T04:09:36.213Z,84.40
2019-02-23T04:10:07.507Z,77.03
2019-02-23T04:10:38.970Z,91.07
2019-02-23T04:11:10.348Z,94.03
2019-02-23T04:11:41.732Z,95.67
2019-02-23T04:12:13.203Z,93.97
2019-02-23T04:12:44.651Z,109.47
2019-02-23T04:13:16.035Z,98.60
2019-02-23T04:13:47.265Z,85.00
2019-02-23T04:14:18.587Z,87.47
2019-02-23T04:14:49.920Z,93.17
2019-02-23T04:15:21.177Z,92.63
2019-02-23T04:15:52.462Z,85.80
2019-02-23T04:16:23.792Z,90.93
2019-02-23T04:16:55.159Z,82.77
2019-02-23T04:17:26.557Z,79.03
2019-02-23T04:17:57.919Z,73.03
2019-02-23T04:18:29.195Z,72.80
2019-02-23T04:19:00.545Z,77.43
2019-02-23T04:19:32.002Z,79.20
2019-02-23T04:20:06.004Z,74.53
2019-02-23T04:20:37.365Z,73.40
2019-02-23T04:21:08.819Z,67.93
2019-02-23T04:21:40.052Z,69.67
2019-02-23T04:22:11.424Z,73.03
2019-02-23T04:22:42.719Z,69.27
2019-02-23T04:23:14.201Z,72.63
2019-02-23T04:23:46.721Z,72.70
2019-02-23T04:24:18.189Z,71.70
2019-02-23T04:24:49.620Z,71.20
2019-02-23T04:25:20.970Z,76.20
2019-02-23T04:25:52.396Z,68.77
2019-02-23T04:26:23.838Z,66.30
2019-02-23T04:26:55.099Z,68.63
2019-02-23T04:27:26.373Z,74.37
2019-02-23T04:27:57.830Z,70.80
2019-02-23T04:28:29.159Z,72.70
2019-02-23T04:29:00.460Z,65.70
2019-02-23T04:29:31.781Z,67.70
2019-02-23T04:30:05.307Z,66.57
2019-02-23T04:30:36.729Z,61.67
2019-02-23T04:31:08.069Z,69.97
2019-02-23T04:31:39.381Z,64.33
2019-02-23T04:32:10.609Z,63.80
2019-02-23T04:32:42.056Z,73.60
2019-02-23T04:33:13.631Z,73.93
2019-02-23T04:33:45.054Z,71.30
2019-02-23T04:34:16.490Z,70.60
2019-02-23T04:34:47.887Z,76.73
2019-02-23T04:35:19.243Z,62.53
2019-02-23T04:35:50.598Z,61.80
2019-02-23T04:36:21.952Z,66.57
2019-02-23T04:36:53.332Z,65.43
2019-02-23T04:37:24.600Z,60.37
2019-02-23T04:37:56.069Z,64.60
2019-02-23T04:38:27.478Z,72.57
2019-02-23T04:38:58.806Z,66.80
2019-02-23T04:39:30.100Z,62.33
2019-02-23T04:40:01.426Z,62.53
2019-02-23T04:40:33.783Z,64.00
2019-02-23T04:41:05.085Z,58.50
2019-02-23T04:41:36.429Z,62.47
2019-02-23T04:42:07.737Z,58.40
2019-02-23T04:42:39.119Z,56.47
2019-02-23T04:43:10.491Z,65.30
2019-02-23T04:43:43.992Z,59.87
2019-02-23T04:44:14.840Z,60.50
2019-02-23T04:44:46.160Z,59.63
2019-02-23T04:45:17.649Z,55.87
2019-02-23T04:45:48.949Z,62.83
2019-02-23T04:46:20.402Z,52.20
2019-02-23T04:46:51.785Z,60.47
2019-02-23T04:47:23.121Z,60.10
2019-02-23T04:47:54.497Z,57.43
2019-02-23T04:48:26.021Z,63.33
2019-02-23T04:48:57.344Z,65.73
2019-02-23T04:49:28.645Z,65.97
2019-02-23T04:49:59.918Z,61.63
2019-02-23T04:50:31.461Z,57.13
2019-02-23T04:51:13.793Z,53.07
2019-02-23T04:51:36.995Z,52.20
2019-02-23T04:52:08.342Z,56.07
2019-02-23T04:52:39.955Z,59.97
2019-02-23T04:53:11.240Z,61.53
2019-02-23T04:53:42.666Z,53.33
2019-02-23T04:54:14.228Z,59.80
2019-02-23T04:54:45.527Z,63.00
2019-02-23T04:55:17.127Z,56.87
2019-02-23T04:55:48.472Z,70.30
2019-02-23T04:56:19.739Z,71.30
2019-02-23T04:56:51.139Z,73.67
2019-02-23T04:57:22.429Z,85.87
2019-02-23T04:57:53.783Z,81.60
2019-02-23T04:58:25.193Z,84.73
2019-02-23T04:58:56.523Z,91.60
2019-02-23T04:59:27.805Z,92.23
2019-02-23T04:59:59.175Z,81.87
2019-02-23T05:00:30.551Z,83.73
2019-02-23T05:01:01.824Z,85.73
2019-02-23T05:01:33.263Z,84.17
2019-02-23T05:02:04.611Z,93.83
2019-02-23T05:02:35.933Z,85.63
2019-02-23T05:03:07.384Z,84.10
2019-02-23T05:03:38.931Z,99.83
2019-02-23T05:04:10.315Z,92.03
2019-02-23T05:04:41.635Z,89.27
2019-02-23T05:05:13.012Z,87.73
2019-02-23T05:05:44.412Z,91.70
2019-02-23T05:06:15.816Z,96.40
2019-02-23T05:06:47.201Z,98.27
2019-02-23T05:07:18.478Z,100.47
2019-02-23T05:07:49.736Z,97.40
2019-02-23T05:08:21.008Z,96.27
2019-02-23T05:08:52.352Z,97.03
2019-02-23T05:09:23.656Z,105.27
2019-02-23T05:09:54.964Z,94.37
2019-02-23T05:10:26.386Z,93.23
2019-02-23T05:10:57.727Z,96.50
2019-02-23T05:11:29.186Z,88.30
2019-02-23T05:12:00.513Z,98.47
2019-02-23T05:12:31.850Z,94.67
2019-02-23T05:13:03.225Z,85.77
2019-02-23T05:13:34.641Z,80.97
2019-02-23T05:14:05.941Z,69.30
2019-02-23T05:14:37.260Z,75.13
2019-02-23T05:15:09.269Z,69.27
2019-02-23T05:15:40.583Z,72.77
2019-02-23T05:16:11.852Z,73.03
2019-02-23T05:16:43.569Z,71.23
2019-02-23T05:17:14.875Z,70.50
2019-02-23T05:17:46.536Z,78.37
2019-02-23T05:18:17.831Z,82.87
2019-02-23T05:18:49.189Z,82.27
2019-02-23T05:19:20.501Z,81.90
2019-02-23T05:19:51.947Z,83.70
2019-02-23T05:20:23.278Z,83.47
2019-02-23T05:20:54.702Z,88.07
2019-02-23T05:21:27.011Z,88.03
2019-02-23T05:21:58.576Z,90.87
2019-02-23T05:22:29.834Z,91.23
2019-02-23T05:23:01.231Z,92.20
2019-02-23T05:23:32.582Z,83.60
2019-02-23T05:24:03.978Z,88.50
2019-02-23T05:24:35.241Z,91.50
2019-02-23T05:25:06.601Z,90.73
2019-02-23T05:25:37.889Z,97.20
2019-02-23T05:26:09.384Z,102.93
2019-02-23T05:26:40.725Z,108.47
2019-02-23T05:27:12.112Z,112.47
2019-02-23T05:27:43.350Z,105.93
2019-02-23T05:28:14.740Z,112.00
2019-02-23T05:28:46.157Z,113.13
2019-02-23T05:29:17.502Z,112.53
2019-02-23T05:29:48.768Z,113.20
2019-02-23T05:30:20.019Z,112.20
2019-02-23T05:30:51.405Z,114.37
2019-02-23T05:31:22.723Z,113.53
2019-02-23T05:31:54.027Z,109.47
2019-02-23T05:32:25.325Z,109.27
2019-02-23T05:32:56.719Z,108.37
2019-02-23T05:33:28.107Z,109.30
2019-02-23T05:33:59.552Z,122.10
2019-02-23T05:34:30.867Z,115.63
2019-02-23T05:35:02.416Z,111.40
2019-02-23T05:35:33.848Z,113.33
2019-02-23T05:36:05.129Z,135.67
2019-02-23T05:36:36.436Z,197.23
2019-02-23T05:37:08.887Z,165.37
2019-02-23T05:37:40.227Z,183.73
2019-02-23T05:38:11.572Z,350.97
2019-02-23T05:38:42.826Z,546.23
2019-02-23T05:39:14.275Z,582.53
2019-02-23T05:39:45.636Z,645.07
2019-02-23T05:40:17.245Z,676.17
2019-02-23T05:40:48.646Z,771.87
2019-02-23T05:41:19.969Z,788.40
2019-02-23T05:41:51.368Z,791.37
2019-02-23T05:42:22.749Z,803.87
2019-02-23T05:43:00.970Z,806.83
2019-02-23T05:43:27.271Z,810.17
2019-02-23T05:43:58.550Z,793.97
2019-02-23T05:44:29.885Z,791.70
2019-02-23T05:45:01.222Z,762.27
2019-02-23T05:45:33.530Z,735.53
2019-02-23T05:46:04.921Z,731.97
2019-02-23T05:46:36.164Z,732.07
2019-02-23T05:47:07.510Z,618.70
2019-02-23T05:47:38.829Z,496.40
2019-02-23T05:48:10.229Z,473.57
2019-02-23T05:48:41.420Z,335.47
2019-02-23T05:49:12.682Z,365.43
2019-02-23T05:49:44.174Z,280.13
2019-02-23T05:50:15.425Z,198.80
2019-02-23T05:50:46.737Z,145.57
2019-02-23T05:51:18.025Z,145.80
2019-02-23T05:51:49.464Z,128.93
2019-02-23T05:52:21.694Z,109.40
2019-02-23T05:52:53.001Z,111.83
2019-02-23T05:53:24.351Z,71.50
2019-02-23T05:53:55.651Z,66.03
2019-02-23T05:54:26.978Z,71.70
2019-02-23T05:54:58.240Z,68.13
2019-02-23T05:55:29.613Z,75.37
2019-02-23T05:56:00.797Z,66.17
2019-02-23T05:56:32.100Z,72.77
2019-02-23T05:57:03.317Z,68.53
2019-02-23T05:57:34.635Z,78.67
2019-02-23T05:58:05.833Z,83.70
2019-02-23T05:58:37.151Z,85.77
2019-02-23T05:59:08.532Z,89.97
2019-02-23T05:59:40.807Z,105.33
2019-02-23T06:00:12.895Z,110.53
2019-02-23T06:00:44.439Z,118.40
2019-02-23T06:01:15.781Z,117.53
2019-02-23T06:01:47.180Z,108.17
2019-02-23T06:02:18.457Z,97.77
2019-02-23T06:02:49.774Z,82.50
2019-02-23T06:03:21.041Z,73.40
2019-02-23T06:03:52.300Z,74.47
2019-02-23T06:04:23.562Z,65.87
2019-02-23T06:04:54.850Z,65.10
2019-02-23T06:05:26.072Z,67.80
2019-02-23T06:05:57.306Z,71.97
2019-02-23T06:06:28.528Z,57.93
2019-02-23T06:06:59.886Z,63.13
2019-02-23T06:07:31.155Z,61.77
2019-02-23T06:08:02.375Z,69.07
2019-02-23T06:08:33.650Z,62.43
2019-02-23T06:09:04.999Z,63.27
2019-02-23T06:09:36.371Z,69.87
2019-02-23T06:10:08.704Z,73.37
2019-02-23T06:10:39.994Z,77.50
2019-02-23T06:11:11.325Z,86.90
2019-02-23T06:11:42.762Z,98.33
2019-02-23T06:12:14.527Z,107.50
2019-02-23T06:12:46.067Z,130.73
2019-02-23T06:13:17.423Z,159.23
2019-02-23T06:13:48.746Z,178.43
2019-02-23T06:14:20.315Z,187.30
2019-02-23T06:14:51.752Z,195.27
2019-02-23T06:15:23.252Z,201.70
2019-02-23T06:15:54.510Z,207.27
2019-02-23T06:16:25.897Z,213.20
2019-02-23T06:16:57.274Z,222.23
2019-02-23T06:17:28.845Z,214.70
2019-02-23T06:18:00.096Z,224.13
2019-02-23T06:18:31.424Z,215.53
2019-02-23T06:19:02.719Z,213.63
2019-02-23T06:19:34.063Z,208.57
2019-02-23T06:20:07.351Z,207.10
2019-02-23T06:20:38.737Z,198.30
2019-02-23T06:21:09.969Z,195.80
2019-02-23T06:21:52.863Z,200.03
2019-02-23T06:22:14.458Z,198.67
2019-02-23T06:22:46.929Z,198.07
2019-02-23T06:23:18.350Z,197.07
2019-02-23T06:23:49.774Z,193.93
2019-02-23T06:24:21.128Z,186.97
2019-02-23T06:24:52.477Z,184.90
2019-02-23T06:25:23.705Z,174.73
2019-02-23T06:25:55.006Z,179.70
2019-02-23T06:26:26.299Z,205.37
2019-02-23T06:26:57.607Z,199.87
2019-02-23T06:27:29.279Z,233.07
2019-02-23T06:28:00.707Z,226.27
2019-02-23T06:28:32.280Z,225.70
2019-02-23T06:29:03.713Z,201.93
2019-02-23T06:29:35.104Z,186.87
2019-02-23T06:30:10.358Z,187.23
2019-02-23T06:30:41.832Z,183.20
2019-02-23T06:31:13.093Z,207.10
2019-02-23T06:31:44.557Z,201.60
2019-02-23T06:32:15.940Z,202.70
2019-02-23T06:32:47.379Z,237.97
2019-02-23T06:33:18.616Z,245.77
2019-02-23T06:33:49.997Z,248.13
2019-02-23T06:34:21.220Z,246.03
2019-02-23T06:34:52.637Z,253.80
2019-02-23T06:35:24.001Z,264.03
2019-02-23T06:35:55.491Z,264.20
2019-02-23T06:36:26.715Z,262.83
2019-02-23T06:36:58.121Z,264.30
2019-02-23T06:37:29.499Z,268.37
2019-02-23T06:38:00.987Z,272.20
2019-02-23T06:38:32.206Z,254.77
2019-02-23T06:39:04.197Z,256.60
2019-02-23T06:39:35.810Z,268.17
2019-02-23T06:40:09.267Z,277.67
2019-02-23T06:40:40.719Z,254.20
2019-02-23T06:41:12.104Z,260.30
2019-02-23T06:41:43.812Z,251.07
2019-02-23T06:42:15.376Z,260.27